Time;durP1;ratioP1;P1;durP2;ratioP2;P2;SDS_P1;SDS_P2;PMS_P1;PMS_P2;Temp;Humidity;BMP_temperature;BMP_pressure;BME280_temperature;BME280_humidity;BME280_pressure;Samples;Min_cycle;Max_cycle;Signal;HPM_P1;HPM_P2
2021/04/15 00:00:54;;;;;;;4.97;3.47;;;4.00;99.90;;;;;;6155785;23;20656;-80
2021/04/15 00:03:56;;;;;;;5.10;3.33;;;4.00;99.90;;;;;;6247852;23;20129;-80
2021/04/15 00:06:51;;;;;;;4.35;3.60;;;4.00;99.90;;;;;;6239947;23;20180;-80
2021/04/15 00:10:02;;;;;;;3.97;3.58;;;4.00;99.90;;;;;;6220905;23;20156;-80
2021/04/15 00:13:11;;;;;;;;;;;;;;;;;;;;;
2021/04/15 00:15:42;;;;;;;7.13;4.50;;;4.00;99.90;;;;;;6247604;23;20262;-80
2021/04/15 00:18:29;;;;;;;7.97;4.65;;;3.90;99.90;;;;;;6220690;23;20177;-80
2021/04/15 00:21:30;;;;;;;7.45;4.93;;;3.90;99.90;;;;;;6247864;23;20133;-80
2021/04/15 00:27:01;;;;;;;6.20;5.35;;;3.90;99.90;;;;;;6227796;23;20172;-79
2021/04/15 00:30:13;;;;;;;6.00;5.40;;;3.90;99.90;;;;;;6247604;23;20164;-80
2021/04/15 00:37:03;;;;;;;7.15;5.00;;;3.90;99.90;;;;;;6247228;23;20198;-82
2021/04/15 00:40:33;;;;;;;5.63;4.90;;;3.80;99.90;;;;;;6181304;23;20582;-80
2021/04/15 00:42:59;;;;;;;6.55;5.20;;;3.80;99.90;;;;;;6134892;23;20165;-80
2021/04/15 00:45:36;;;;;;;7.32;5.65;;;3.50;99.90;;;;;;6220427;23;20177;-80
2021/04/15 00:48:09;;;;;;;7.80;6.22;;;3.50;99.90;;;;;;6220575;23;20158;-80
2021/04/15 00:51:10;;;;;;;6.35;5.75;;;3.50;99.90;;;;;;6247258;23;20219;-80
2021/04/15 00:58:11;;;;;;;;;;;;;;;;;;;;;
2021/04/15 01:05:23;;;;;;;11.25;6.13;;;3.40;99.90;;;;;;6038372;23;20168;-80
2021/04/15 01:34:38;;;;;;;12.18;7.38;;;2.50;99.90;;;;;;6154200;23;20611;-80
2021/04/15 06:37:46;;;;;;;39.30;30.63;;;2.70;99.90;;;;;;6219049;22;20304;-78
2021/04/15 06:40:21;;;;;;;32.92;25.05;;;2.80;99.90;;;;;;6215983;23;20518;-77
2021/04/15 06:43:08;;;;;;;30.73;24.30;;;2.80;99.90;;;;;;6214899;23;20161;-78
2021/04/15 06:45:42;;;;;;;30.08;22.98;;;3.00;99.90;;;;;;6215544;23;20161;-77
2021/04/15 06:48:31;;;;;;;24.98;20.30;;;3.00;99.90;;;;;;6215990;23;20570;-77
2021/04/15 06:51:08;;;;;;;23.55;17.88;;;3.10;99.90;;;;;;6217786;23;20574;-78
2021/04/15 06:54:01;;;;;;;22.58;17.08;;;3.20;99.90;;;;;;6215357;23;20590;-81
2021/04/15 06:56:48;;;;;;;17.50;14.80;;;3.20;99.90;;;;;;6189326;23;20184;-80
2021/04/15 06:59:46;;;;;;;21.25;15.95;;;3.10;99.90;;;;;;6215852;23;20224;-80
2021/04/15 07:28:46;;;;;;;15.82;13.82;;;4.00;99.90;;;;;;6185757;23;20232;-81
2021/04/15 08:06:27;;;;;;;13.00;9.02;;;5.00;99.90;;;;;;6245409;22;20240;-80
2021/04/15 08:09:09;;;;;;;12.90;10.52;;;5.40;99.90;;;;;;6245806;23;20125;-81
2021/04/15 08:12:23;;;;;;;11.25;9.02;;;5.60;99.90;;;;;;6245322;23;20138;-81
2021/04/15 08:15:20;;;;;;;13.13;9.70;;;5.80;99.90;;;;;;6206238;23;20152;-80
2021/04/15 08:18:32;;;;;;;9.25;8.25;;;5.80;99.90;;;;;;6245820;23;20165;-79
2021/04/15 08:21:41;;;;;;;11.73;9.10;;;5.80;99.90;;;;;;6154762;23;20154;-80
2021/04/15 08:24:28;;;;;;;10.25;8.65;;;6.10;99.90;;;;;;6097320;23;20527;-82
2021/04/15 08:27:34;;;;;;;9.38;8.02;;;6.10;99.90;;;;;;6221305;23;20172;-79
2021/04/15 08:37:37;;;;;;;;;;;;;;;;;;;;;
2021/04/15 08:55:11;;;;;;;;;;;;;;;;;;;;;
2021/04/15 09:01:36;;;;;;;8.70;6.97;;;6.90;99.90;;;;;;6216948;23;20176;-80
2021/04/15 09:07:52;;;;;;;7.40;4.90;;;6.90;99.90;;;;;;6225974;22;20295;-81
2021/04/15 09:10:29;;;;;;;7.25;5.93;;;7.00;99.90;;;;;;6216409;23;20212;-83
2021/04/15 09:13:14;;;;;;;8.30;5.63;;;7.00;99.90;;;;;;6216465;23;20145;-82
2021/04/15 10:12:22;;;;;;;3.93;3.53;;;9.30;99.90;;;;;;6153885;23;20836;-82
2021/04/15 10:28:55;;;;;;;4.17;3.17;;;11.50;99.90;;;;;;6238533;22;20526;-83
2021/04/15 10:31:31;;;;;;;3.60;2.90;;;10.90;99.90;;;;;;6201570;23;20793;-82
2021/04/15 10:34:11;;;;;;;4.23;3.17;;;10.20;99.90;;;;;;6246357;23;20353;-83
2021/04/15 10:37:14;;;;;;;4.67;4.27;;;10.50;99.90;;;;;;6213787;22;20455;-84
2021/04/15 10:40:08;;;;;;;14.48;4.82;;;9.80;99.90;;;;;;6216394;23;20360;-84
2021/04/15 10:43:05;;;;;;;6.27;4.00;;;10.00;99.90;;;;;;6217538;23;20161;-83
2021/04/15 10:45:55;;;;;;;7.00;3.95;;;9.80;99.90;;;;;;6187639;23;20412;-82
2021/04/15 10:49:03;;;;;;;6.95;3.95;;;9.60;99.90;;;;;;6213795;23;20211;-84
2021/04/15 10:54:51;;;;;;;4.15;3.25;;;9.40;99.90;;;;;;6215677;23;20168;-77
2021/04/15 10:57:21;;;;;;;7.55;3.67;;;9.60;99.90;;;;;;6214176;23;20181;-79
2021/04/15 10:59:49;;;;;;;9.05;4.65;;;9.80;99.90;;;;;;6215822;23;20141;-79
2021/04/15 11:02:32;;;;;;;6.38;4.00;;;9.80;99.90;;;;;;6189827;23;20219;-81
2021/04/15 11:07:34;;;;;;;5.47;3.30;;;9.30;99.90;;;;;;6246096;22;20204;-83
2021/04/15 11:10:21;;;;;;;6.77;3.40;;;9.60;99.90;;;;;;6246117;23;20390;-83
2021/04/15 11:12:47;;;;;;;8.90;3.38;;;10.10;99.90;;;;;;6219389;23;20145;-83
2021/04/15 11:15:44;;;;;;;4.27;3.43;;;10.20;99.90;;;;;;6218440;23;20179;-82
2021/04/15 11:18:57;;;;;;;;;;;;;;;;;;;;;
2021/04/15 11:21:24;;;;;;;4.60;3.20;;;9.60;99.90;;;;;;6188365;23;20745;-84
2021/04/15 11:27:43;;;;;;;4.60;3.50;;;10.50;99.90;;;;;;6167839;23;20399;-83
2021/04/15 11:54:02;;;;;;;5.53;2.40;;;13.10;99.90;;;;;;6198319;23;20833;-83
2021/04/15 12:03:01;;;;;;;2.97;2.50;;;14.90;99.90;;;;;;6248144;23;20867;-83
2021/04/15 12:05:37;;;;;;;4.60;3.07;;;15.20;99.40;;;;;;6220793;22;20374;-83
2021/04/15 12:08:13;;;;;;;3.50;2.70;;;15.20;99.90;;;;;;6248295;23;20152;-83
2021/04/15 12:10:46;;;;;;;2.43;2.23;;;16.00;99.90;;;;;;6248134;23;20348;-84
2021/04/15 12:13:21;;;;;;;3.07;2.50;;;16.00;98.40;;;;;;6248575;23;20359;-83
2021/04/15 12:16:00;;;;;;;4.13;2.63;;;16.10;96.50;;;;;;6221434;23;20433;-83
2021/04/15 12:18:36;;;;;;;6.57;3.33;;;15.90;92.80;;;;;;6247906;23;20478;-84
2021/04/15 12:21:07;;;;;;;4.50;2.90;;;15.30;95.00;;;;;;6247968;23;20356;-84
2021/04/15 12:23:46;;;;;;;4.53;2.63;;;15.50;93.70;;;;;;6248247;23;20341;-83
2021/04/15 12:26:28;;;;;;;6.00;2.97;;;14.80;93.20;;;;;;6247289;22;20362;-82
2021/04/15 12:29:07;;;;;;;4.20;2.73;;;13.70;95.10;;;;;;6220937;23;20730;-83
2021/04/15 12:31:53;;;;;;;3.17;2.40;;;14.40;96.70;;;;;;6247806;23;20359;-85
2021/04/15 12:34:59;;;;;;;4.80;2.77;;;13.80;94.10;;;;;;6248195;23;20363;-85
2021/04/15 12:37:36;;;;;;;2.83;2.50;;;13.70;92.60;;;;;;6248150;22;20422;-85
2021/04/15 12:40:02;;;;;;;2.30;2.10;;;13.50;93.10;;;;;;6248249;23;20326;-87
2021/04/15 12:42:30;;;;;;;4.10;2.57;;;13.70;95.20;;;;;;6247897;23;20369;-88
2021/04/15 12:45:01;;;;;;;3.73;2.80;;;14.20;92.90;;;;;;6220984;23;20235;-85
2021/04/15 12:47:32;;;;;;;5.40;3.00;;;15.00;96.70;;;;;;6247562;22;20404;-85
2021/04/15 12:49:59;;;;;;;3.50;2.70;;;15.10;93.20;;;;;;6221338;23;20394;-84
2021/04/15 12:52:31;;;;;;;3.83;2.50;;;15.60;92.30;;;;;;6247611;23;20454;-84
2021/04/15 12:54:58;;;;;;;2.97;2.53;;;15.10;91.40;;;;;;6247451;23;20360;-85
2021/04/15 12:57:25;;;;;;;3.73;2.37;;;15.40;92.90;;;;;;6247226;22;20792;-84
2021/04/15 12:59:54;;;;;;;4.37;2.87;;;15.40;90.80;;;;;;6219544;23;20414;-84
2021/04/15 13:02:28;;;;;;;7.47;3.00;;;15.10;91.30;;;;;;6247323;23;20375;-84
2021/04/15 13:05:00;;;;;;;5.07;3.03;;;14.10;91.90;;;;;;6247660;23;20371;-84
2021/04/15 13:07:25;;;;;;;3.80;2.50;;;13.90;91.50;;;;;;6219711;23;20412;-84
2021/04/15 13:09:53;;;;;;;3.70;2.83;;;13.50;92.70;;;;;;6247519;23;20862;-85
2021/04/15 13:12:19;;;;;;;5.57;2.83;;;13.30;91.40;;;;;;6247441;23;20145;-84
2021/04/15 13:14:52;;;;;;;4.70;2.80;;;13.00;91.70;;;;;;6247720;23;20381;-84
2021/04/15 13:17:35;;;;;;;4.63;2.80;;;13.10;93.70;;;;;;6248897;22;20503;-84
2021/04/15 13:20:10;;;;;;;3.57;2.30;;;12.30;93.80;;;;;;6221073;23;20409;-83
2021/04/15 13:22:39;;;;;;;4.77;2.60;;;12.70;94.10;;;;;;6221261;23;20454;-84
2021/04/15 13:25:15;;;;;;;3.77;2.60;;;13.00;95.50;;;;;;6246977;23;20411;-84
2021/04/15 13:27:45;;;;;;;4.53;2.87;;;13.20;95.10;;;;;;6247082;23;20362;-85
2021/04/15 13:30:33;;;;;;;5.70;2.93;;;14.10;93.40;;;;;;6247106;23;20358;-84
2021/04/15 13:33:43;;;;;;;3.30;3.00;;;15.00;94.10;;;;;;6247117;23;20431;-84
2021/04/15 13:36:08;;;;;;;4.80;3.03;;;15.30;93.10;;;;;;6246588;22;20766;-84
2021/04/15 13:38:39;;;;;;;5.17;2.60;;;14.60;92.20;;;;;;6247048;23;20407;-85
2021/04/15 13:41:27;;;;;;;3.60;2.47;;;14.90;93.50;;;;;;6247172;23;20129;-85
2021/04/15 13:44:02;;;;;;;4.17;2.50;;;14.60;91.50;;;;;;6247016;23;20326;-85
2021/04/15 13:46:32;;;;;;;4.10;2.77;;;14.60;89.90;;;;;;6246668;22;20508;-85
2021/04/15 13:49:05;;;;;;;3.53;3.23;;;15.10;90.30;;;;;;6247060;23;20719;-84
2021/04/15 13:51:35;;;;;;;3.17;2.43;;;15.50;88.60;;;;;;6247333;23;20346;-84
2021/04/15 13:54:28;;;;;;;3.00;2.60;;;16.20;86.20;;;;;;6246944;23;20333;-87
2021/04/15 13:57:13;;;;;;;3.73;2.43;;;16.50;82.90;;;;;;6219728;23;20514;-85
2021/04/15 13:59:52;;;;;;;2.97;2.50;;;17.50;80.90;;;;;;6246819;23;20473;-84
2021/04/15 14:02:17;;;;;;;4.00;2.60;;;16.70;78.40;;;;;;6220143;23;20385;-84
2021/04/15 14:10:45;;;;;;;3.27;3.03;;;15.70;80.60;;;;;;6232143;23;20346;-85
2021/04/15 14:13:21;;;;;;;6.70;2.83;;;15.50;83.10;;;;;;6213555;23;20376;-85
2021/04/15 14:15:54;;;;;;;5.83;2.60;;;15.60;86.30;;;;;;6219176;23;20377;-86
2021/04/15 14:18:46;;;;;;;6.07;4.03;;;14.90;87.10;;;;;;6219601;23;20402;-84
2021/04/15 14:21:23;;;;;;;4.77;3.47;;;15.00;89.90;;;;;;6219865;23;20349;-84
2021/04/15 14:23:52;;;;;;;3.43;3.10;;;14.20;84.80;;;;;;6246790;23;20413;-85
2021/04/15 14:26:34;;;;;;;5.43;3.40;;;14.10;88.60;;;;;;6219295;23;20370;-84
2021/04/15 14:29:16;;;;;;;5.97;3.23;;;13.00;84.70;;;;;;6219983;23;20362;-84
2021/04/15 14:31:49;;;;;;;4.43;3.03;;;12.70;83.20;;;;;;6246643;23;20360;-85
2021/04/15 14:34:32;;;;;;;3.90;2.87;;;12.70;84.20;;;;;;6246560;23;20335;-85
2021/04/15 14:37:03;;;;;;;5.03;3.37;;;12.90;83.70;;;;;;6219534;23;20888;-84
2021/04/15 14:39:57;;;;;;;3.60;3.10;;;13.30;86.20;;;;;;6246728;23;20669;-85
2021/04/15 14:42:29;;;;;;;3.77;2.80;;;14.30;84.90;;;;;;6165953;23;20376;-85
2021/04/15 14:45:00;;;;;;;4.67;3.17;;;14.10;84.50;;;;;;6246248;23;20346;-85
2021/04/15 14:47:37;;;;;;;4.30;3.23;;;14.60;83.60;;;;;;6246649;22;20377;-85
2021/04/15 14:50:28;;;;;;;3.73;2.80;;;14.20;80.60;;;;;;6246612;23;20388;-85
2021/04/15 14:53:08;;;;;;;3.83;2.60;;;14.90;79.60;;;;;;6219691;23;20437;-85
2021/04/15 14:55:34;;;;;;;5.57;2.87;;;15.20;83.10;;;;;;6219079;23;20731;-85
2021/04/15 14:58:29;;;;;;;3.47;2.90;;;14.60;82.20;;;;;;6194988;23;20435;-85
2021/04/15 15:01:10;;;;;;;6.23;4.03;;;14.10;82.10;;;;;;6215213;23;20449;-77
2021/04/15 15:03:38;;;;;;;4.73;2.77;;;14.40;83.50;;;;;;6219196;23;20914;-78
2021/04/15 15:06:05;;;;;;;8.60;3.20;;;14.20;85.90;;;;;;6245636;22;20445;-78
2021/04/15 15:08:43;;;;;;;3.57;2.70;;;14.70;84.70;;;;;;6245966;23;20376;-78
2021/04/15 15:11:11;;;;;;;6.17;3.10;;;15.10;80.70;;;;;;6246073;23;20450;-79
2021/04/15 15:13:40;;;;;;;3.90;2.83;;;15.30;80.70;;;;;;6246093;23;20395;-78
2021/04/15 15:16:11;;;;;;;2.47;2.27;;;15.70;77.20;;;;;;6245648;22;20465;-80
2021/04/15 15:18:45;;;;;;;2.90;2.60;;;16.40;77.20;;;;;;6219031;23;20437;-80
2021/04/15 15:21:41;;;;;;;2.80;2.50;;;16.10;73.60;;;;;;6218991;23;20371;-79
2021/04/15 15:24:17;;;;;;;3.13;2.70;;;15.70;79.30;;;;;;6219148;23;20391;-79
2021/04/15 16:12:40;;;;;;;4.70;3.27;;;14.00;76.20;;;;;;6223829;22;20904;-81
2021/04/15 16:15:27;;;;;;;6.10;4.00;;;14.30;75.40;;;;;;6238577;23;20394;-81
2021/04/15 16:17:56;;;;;;;6.23;4.00;;;14.70;77.20;;;;;;6184980;23;20888;-81
2021/04/15 16:20:22;;;;;;;7.60;3.70;;;14.90;75.50;;;;;;6185288;23;20377;-81
2021/04/15 16:22:48;;;;;;;8.27;4.90;;;15.00;76.70;;;;;;6185270;23;20469;-82
2021/04/15 16:25:15;;;;;;;5.10;3.03;;;15.00;73.90;;;;;;6184886;23;20154;-81
2021/04/15 16:27:41;;;;;;;4.43;3.67;;;15.10;74.10;;;;;;6185372;23;20381;-81
2021/04/15 16:30:12;;;;;;;5.07;3.50;;;15.40;71.90;;;;;;6185463;23;20381;-83
2021/04/15 16:32:39;;;;;;;3.13;2.73;;;15.80;71.20;;;;;;6185411;23;20354;-82
2021/04/15 16:35:06;;;;;;;3.33;2.80;;;15.30;66.80;;;;;;6183477;23;20382;-80
2021/04/15 16:37:32;;;;;;;5.10;3.27;;;15.30;65.30;;;;;;6185403;23;20522;-80
2021/04/15 16:39:58;;;;;;;3.70;3.20;;;14.90;67.90;;;;;;6183515;23;20356;-80
2021/04/15 16:42:28;;;;;;;2.40;2.20;;;14.40;64.40;;;;;;6186985;23;20377;-82
2021/04/15 16:44:55;;;;;;;3.03;2.37;;;14.30;64.10;;;;;;6186438;23;20158;-82
2021/04/15 16:47:21;;;;;;;6.07;2.17;;;14.40;62.00;;;;;;6186589;23;20397;-81
2021/04/15 16:49:48;;;;;;;4.63;2.40;;;14.50;60.60;;;;;;6185571;23;20476;-81
2021/04/15 16:52:14;;;;;;;2.10;1.83;;;14.60;60.70;;;;;;6210592;23;20405;-83
2021/04/15 16:54:39;;;;;;;2.17;1.97;;;14.80;60.50;;;;;;6185301;23;20386;-82
2021/04/15 16:57:08;;;;;;;5.47;2.57;;;15.00;60.10;;;;;;6186786;23;20531;-82
2021/04/15 16:59:33;;;;;;;8.00;3.30;;;14.90;64.70;;;;;;6186970;23;20151;-81
2021/04/15 17:02:00;;;;;;;3.50;3.20;;;14.70;68.20;;;;;;6185572;23;20916;-81
2021/04/15 17:04:26;;;;;;;4.40;3.70;;;14.30;70.10;;;;;;6184907;23;20154;-82
2021/04/15 17:06:52;;;;;;;5.80;3.30;;;14.30;68.40;;;;;;6186459;23;20383;-82
2021/04/15 17:09:18;;;;;;;7.20;4.23;;;14.00;70.40;;;;;;6186851;23;20173;-80
2021/04/15 17:11:45;;;;;;;3.47;2.87;;;14.00;70.70;;;;;;6190277;23;20420;-81
2021/04/15 17:14:11;;;;;;;5.53;3.53;;;13.70;71.40;;;;;;6190276;23;20380;-83
2021/04/15 17:16:38;;;;;;;4.63;3.00;;;13.20;71.30;;;;;;6216314;23;20371;-82
2021/04/15 17:19:05;;;;;;;4.13;3.07;;;13.10;70.70;;;;;;6216834;23;20369;-85
2021/04/15 17:21:32;;;;;;;2.97;2.77;;;12.80;70.00;;;;;;6190123;23;21093;-79
2021/04/15 17:23:59;;;;;;;4.70;3.30;;;12.80;73.10;;;;;;6216866;23;20441;-83
2021/04/15 17:26:27;;;;;;;3.87;3.07;;;12.60;73.30;;;;;;6190108;23;20711;-82
2021/04/15 17:28:55;;;;;;;6.43;2.70;;;12.70;74.40;;;;;;6216617;23;20464;-83
2021/04/15 17:31:23;;;;;;;5.07;2.50;;;12.30;74.80;;;;;;6190802;23;20739;-82
2021/04/15 17:33:49;;;;;;;5.67;3.47;;;12.30;74.20;;;;;;6190125;23;20380;-80
2021/04/15 17:36:15;;;;;;;5.40;2.90;;;12.50;75.80;;;;;;6190043;23;20405;-80
2021/04/15 17:38:41;;;;;;;3.93;3.53;;;12.40;76.40;;;;;;6165314;23;20192;-82
2021/04/15 17:41:07;;;;;;;5.73;3.70;;;12.10;76.70;;;;;;6190443;23;20859;-83
2021/04/15 17:43:38;;;;;;;4.57;3.03;;;12.10;75.90;;;;;;6215177;23;20457;-82
2021/04/15 17:46:09;;;;;;;4.83;2.97;;;11.90;77.60;;;;;;6216167;23;20448;-81
2021/04/15 17:48:36;;;;;;;4.10;3.80;;;11.50;78.50;;;;;;6216583;23;20353;-82
2021/04/15 17:51:06;;;;;;;4.40;4.00;;;11.30;80.30;;;;;;6216551;23;20570;-82
2021/04/15 17:53:32;;;;;;;3.72;3.42;;;11.10;81.00;;;;;;6216099;23;20169;-83
2021/04/15 17:56:00;;;;;;;5.50;4.75;;;10.90;83.50;;;;;;6215978;23;20173;-84
2021/04/15 17:58:27;;;;;;;5.38;3.50;;;10.80;85.00;;;;;;6216308;23;20165;-83
2021/04/15 18:00:54;;;;;;;8.57;4.72;;;10.70;84.90;;;;;;6216565;23;20182;-82
2021/04/15 18:03:20;;;;;;;7.68;5.50;;;10.60;84.20;;;;;;6216509;23;20157;-84
2021/04/15 18:05:48;;;;;;;4.13;3.73;;;10.50;86.70;;;;;;6215953;23;20158;-82
2021/04/15 18:08:15;;;;;;;4.40;4.00;;;10.40;87.00;;;;;;6216200;23;20381;-82
2021/04/15 18:10:48;;;;;;;6.90;3.97;;;10.20;89.40;;;;;;6189558;23;20196;-83
2021/04/15 18:13:19;;;;;;;4.80;3.40;;;10.20;90.00;;;;;;6189633;23;20152;-82
2021/04/15 18:15:45;;;;;;;6.70;3.80;;;10.00;91.00;;;;;;6188942;23;20177;-81
2021/04/15 18:18:13;;;;;;;6.07;3.45;;;9.90;91.80;;;;;;6189447;23;20173;-83
2021/04/15 18:20:42;;;;;;;7.53;4.22;;;9.70;91.50;;;;;;6189537;23;20301;-83
2021/04/15 18:23:08;;;;;;;8.82;3.80;;;9.70;92.80;;;;;;6189654;23;20180;-82
2021/04/15 18:25:37;;;;;;;4.20;3.80;;;9.50;92.80;;;;;;6215665;23;20247;-83
2021/04/15 18:28:04;;;;;;;4.50;3.22;;;9.50;92.80;;;;;;6216056;23;20236;-81
2021/04/15 18:30:38;;;;;;;6.20;3.03;;;9.60;93.30;;;;;;6215938;23;20154;-82
2021/04/15 18:33:07;;;;;;;7.22;4.50;;;9.50;93.40;;;;;;6189588;23;20153;-77
2021/04/15 18:35:35;;;;;;;5.85;4.30;;;9.50;93.00;;;;;;6215895;23;20188;-78
2021/04/15 18:38:03;;;;;;;4.07;3.42;;;9.40;93.50;;;;;;6215659;23;20178;-77
2021/04/15 18:40:37;;;;;;;4.35;3.85;;;9.30;93.80;;;;;;6215821;23;20150;-77
2021/04/15 18:43:04;;;;;;;7.18;4.65;;;9.20;94.10;;;;;;6190725;23;20409;-77
2021/04/15 18:45:30;;;;;;;4.72;4.32;;;9.20;94.50;;;;;;6215665;23;20453;-77
2021/04/15 18:47:57;;;;;;;10.33;9.17;;;9.10;95.20;;;;;;6216061;23;20228;-77
2021/04/15 18:50:29;;;;;;;6.32;4.55;;;8.90;96.20;;;;;;6216084;23;20153;-78
2021/04/15 18:52:55;;;;;;;4.40;3.70;;;9.00;95.90;;;;;;6215931;23;20137;-77
2021/04/15 18:55:21;;;;;;;3.87;3.33;;;8.80;96.50;;;;;;6215307;23;20154;-77
2021/04/15 18:57:47;;;;;;;5.78;3.45;;;8.50;96.10;;;;;;6189126;23;20223;-78
2021/04/15 19:00:20;;;;;;;5.87;3.60;;;8.50;96.00;;;;;;6215762;23;20146;-78
2021/04/15 19:02:48;;;;;;;5.88;3.70;;;8.50;96.50;;;;;;6215962;23;20534;-77
2021/04/15 19:05:17;;;;;;;3.33;3.03;;;8.50;96.00;;;;;;6163859;23;20230;-77
2021/04/15 19:07:43;;;;;;;6.25;4.00;;;8.40;96.30;;;;;;6215555;23;20145;-77
2021/04/15 19:10:11;;;;;;;4.90;2.97;;;8.30;96.20;;;;;;6215294;23;20160;-77
2021/04/15 19:12:37;;;;;;;7.38;3.38;;;8.00;96.70;;;;;;6186577;23;20486;-79
2021/04/15 19:15:04;;;;;;;5.20;3.30;;;8.10;96.80;;;;;;6185654;23;20161;-77
2021/04/15 19:17:30;;;;;;;3.67;2.60;;;8.10;97.60;;;;;;6212137;23;20227;-77
2021/04/15 19:19:56;;;;;;;10.90;3.10;;;8.10;97.70;;;;;;6211431;23;20165;-79
2021/04/15 19:22:22;;;;;;;3.80;3.07;;;8.00;98.10;;;;;;6213273;23;20236;-78
2021/04/15 19:24:47;;;;;;;6.77;3.27;;;7.90;98.20;;;;;;6186696;23;20680;-80
2021/04/15 19:27:14;;;;;;;3.92;2.92;;;7.70;98.60;;;;;;6186019;23;20434;-78
2021/04/15 19:29:39;;;;;;;8.00;3.13;;;7.50;98.60;;;;;;6214198;23;20211;-79
2021/04/15 19:32:07;;;;;;;5.10;2.70;;;7.50;98.80;;;;;;6211891;23;20165;-78
2021/04/15 19:34:35;;;;;;;5.78;3.22;;;7.50;99.00;;;;;;6213078;23;20488;-79
2021/04/15 19:37:02;;;;;;;7.25;3.08;;;7.50;99.40;;;;;;6212116;23;20185;-78
2021/04/15 19:39:28;;;;;;;5.78;2.10;;;7.40;99.30;;;;;;6213948;23;20160;-78
2021/04/15 19:41:59;;;;;;;4.57;2.88;;;7.30;99.90;;;;;;6212461;23;20164;-79
2021/04/15 19:44:25;;;;;;;4.30;2.90;;;7.30;99.80;;;;;;6187451;23;20160;-77
2021/04/15 19:46:51;;;;;;;4.17;3.57;;;7.20;99.90;;;;;;6211796;23;20381;-78
2021/04/15 19:49:18;;;;;;;4.65;3.42;;;7.10;99.90;;;;;;6212735;23;20756;-79
2021/04/15 19:51:44;;;;;;;5.72;3.25;;;7.00;99.90;;;;;;6213111;23;20204;-79
2021/04/15 19:54:11;;;;;;;4.50;3.20;;;7.00;99.90;;;;;;6213792;23;20161;-78
2021/04/15 19:56:37;;;;;;;3.50;3.00;;;6.90;99.90;;;;;;6184709;23;20764;-80
2021/04/15 19:59:06;;;;;;;5.60;3.05;;;6.90;99.90;;;;;;6213928;23;20496;-79
2021/04/15 20:01:32;;;;;;;7.10;3.55;;;6.80;99.90;;;;;;6213173;23;20157;-79
2021/04/15 20:03:58;;;;;;;3.35;2.95;;;6.80;99.90;;;;;;6212752;23;20199;-78
2021/04/15 20:06:25;;;;;;;6.10;3.10;;;6.70;99.90;;;;;;6212984;23;20187;-80
2021/04/15 20:08:51;;;;;;;3.75;3.33;;;6.60;99.90;;;;;;6213818;23;20571;-79
2021/04/15 20:11:23;;;;;;;3.07;2.73;;;6.60;99.90;;;;;;6185810;23;20197;-81
2021/04/15 20:13:50;;;;;;;5.43;3.30;;;6.60;99.90;;;;;;6213227;23;20380;-80
2021/04/15 20:16:17;;;;;;;8.93;3.35;;;6.50;99.90;;;;;;6186329;23;20272;-79
2021/04/15 20:18:44;;;;;;;3.65;2.70;;;6.40;99.90;;;;;;6187760;23;20222;-78
2021/04/15 20:21:12;;;;;;;4.35;3.38;;;6.30;99.90;;;;;;6188535;23;20158;-78
2021/04/15 20:23:40;;;;;;;6.45;3.30;;;6.20;99.90;;;;;;6188860;23;20248;-79
2021/04/15 20:26:06;;;;;;;4.38;3.58;;;6.10;99.90;;;;;;6214525;23;20252;-80
2021/04/15 20:28:34;;;;;;;8.73;3.33;;;6.00;99.90;;;;;;6189053;23;20157;-78
2021/04/15 20:31:00;;;;;;;4.82;2.95;;;6.00;99.90;;;;;;6215466;23;20158;-78
2021/04/15 20:33:27;;;;;;;4.70;3.25;;;5.90;99.90;;;;;;6187363;23;20177;-79
2021/04/15 20:35:54;;;;;;;4.95;2.88;;;5.80;99.90;;;;;;6188416;23;20205;-78
2021/04/15 20:38:25;;;;;;;3.97;3.00;;;5.70;99.90;;;;;;6214811;23;20257;-77
2021/04/15 20:40:53;;;;;;;5.72;4.00;;;5.70;99.90;;;;;;6214521;23;20226;-78
2021/04/15 20:43:19;;;;;;;3.47;3.13;;;5.70;99.90;;;;;;6189045;23;20209;-77
2021/04/15 20:45:45;;;;;;;3.43;3.10;;;5.60;99.90;;;;;;6215242;23;20173;-78
2021/04/15 20:48:12;;;;;;;5.93;3.10;;;5.50;99.90;;;;;;6214609;23;20918;-78
2021/04/15 20:50:42;;;;;;;4.25;3.45;;;5.30;99.90;;;;;;6189303;23;20158;-80
2021/04/15 20:53:12;;;;;;;5.93;3.70;;;5.40;99.90;;;;;;6215057;23;20160;-80
2021/04/15 20:55:39;;;;;;;4.90;3.75;;;5.30;99.90;;;;;;6213780;23;20180;-76
2021/04/15 20:58:06;;;;;;;7.07;3.45;;;5.30;99.90;;;;;;6214971;23;20183;-77
2021/04/15 21:00:37;;;;;;;7.00;3.53;;;5.20;99.90;;;;;;6188761;23;20256;-78
2021/04/15 21:03:04;;;;;;;3.85;2.72;;;5.20;99.90;;;;;;6213400;23;20544;-77
2021/04/15 21:05:30;;;;;;;5.05;3.35;;;5.10;99.90;;;;;;6213735;23;20179;-76
2021/04/15 21:07:56;;;;;;;5.97;3.37;;;5.00;99.90;;;;;;6214156;23;20235;-78
2021/04/15 21:10:27;;;;;;;4.07;3.65;;;5.00;99.90;;;;;;6213906;23;20256;-77
2021/04/15 21:12:54;;;;;;;3.72;3.20;;;4.90;99.90;;;;;;6214196;23;20157;-77
2021/04/15 21:15:21;;;;;;;5.38;4.00;;;4.80;99.90;;;;;;6213491;23;20165;-78
2021/04/15 21:17:47;;;;;;;8.50;4.70;;;4.70;99.90;;;;;;6213173;23;20188;-78
2021/04/15 21:20:14;;;;;;;8.50;4.40;;;4.70;99.90;;;;;;6163445;23;20165;-76
2021/04/15 21:22:40;;;;;;;5.78;4.78;;;4.70;99.90;;;;;;6214751;23;20149;-77
2021/04/15 21:25:07;;;;;;;10.73;4.60;;;4.70;99.90;;;;;;6213606;23;20216;-75
2021/04/15 21:27:33;;;;;;;5.25;3.10;;;4.70;99.90;;;;;;6213010;23;20468;-76
2021/04/15 21:29:58;;;;;;;4.77;3.47;;;4.70;99.90;;;;;;6214667;23;20180;-76
2021/04/15 21:32:24;;;;;;;5.47;3.47;;;4.70;99.90;;;;;;6213192;23;20161;-76
2021/04/15 21:34:50;;;;;;;8.47;3.73;;;4.70;99.90;;;;;;6214514;23;20276;-76
2021/04/15 21:37:15;;;;;;;4.00;2.90;;;4.80;99.90;;;;;;6213791;23;20453;-77
2021/04/15 21:39:41;;;;;;;6.70;4.37;;;4.90;99.90;;;;;;6188191;23;20225;-76
2021/04/15 21:42:07;;;;;;;6.77;3.40;;;4.80;99.90;;;;;;6213544;23;20205;-75
2021/04/15 21:44:33;;;;;;;6.00;3.23;;;4.80;99.90;;;;;;6214478;23;20846;-76
2021/04/15 21:46:59;;;;;;;4.00;3.23;;;4.80;99.90;;;;;;6188114;23;20225;-78
2021/04/15 21:49:24;;;;;;;8.23;3.42;;;4.80;99.90;;;;;;6187549;23;20590;-76
2021/04/15 21:51:51;;;;;;;5.30;3.20;;;4.80;99.90;;;;;;6214134;23;20249;-76
2021/04/15 21:54:17;;;;;;;4.93;2.83;;;4.80;99.90;;;;;;6215057;23;20164;-77
2021/04/15 21:56:43;;;;;;;3.05;2.65;;;4.80;99.90;;;;;;6212792;23;20169;-78
2021/04/15 21:59:10;;;;;;;7.33;3.57;;;4.70;99.90;;;;;;6214655;23;20602;-77
2021/04/15 22:01:36;;;;;;;6.25;3.72;;;4.70;99.90;;;;;;6187333;23;20252;-78
2021/04/15 22:04:02;;;;;;;3.70;3.20;;;4.60;99.90;;;;;;6214333;23;20188;-77
2021/04/15 22:06:30;;;;;;;4.90;3.23;;;4.50;99.90;;;;;;6214209;23;20175;-78
2021/04/15 22:08:58;;;;;;;3.53;3.20;;;4.50;99.90;;;;;;6214363;23;20587;-77
2021/04/15 22:11:33;;;;;;;3.83;3.25;;;4.50;99.90;;;;;;6213039;23;20173;-76
2021/04/15 22:14:01;;;;;;;9.82;3.00;;;4.40;99.90;;;;;;6215074;23;20481;-76
2021/04/15 22:16:30;;;;;;;4.57;3.70;;;4.40;99.90;;;;;;6212547;23;20539;-78
2021/04/15 22:19:00;;;;;;;4.85;3.65;;;4.30;99.90;;;;;;6213253;23;20173;-77
2021/04/15 22:21:35;;;;;;;3.92;3.25;;;4.20;99.90;;;;;;6213679;23;20232;-77
2021/04/15 22:24:10;;;;;;;3.60;3.10;;;4.10;99.90;;;;;;6214070;23;20164;-80
2021/04/15 22:26:37;;;;;;;6.25;4.30;;;4.10;99.90;;;;;;6213362;23;20370;-78
2021/04/15 22:29:06;;;;;;;4.35;3.25;;;4.00;99.90;;;;;;6216419;23;20149;-77
2021/04/15 22:31:32;;;;;;;8.07;3.90;;;4.00;99.90;;;;;;6215594;23;20154;-78
2021/04/15 22:33:58;;;;;;;8.10;4.40;;;3.90;99.90;;;;;;6216080;23;20598;-77
2021/04/15 22:36:27;;;;;;;6.67;3.37;;;3.80;99.90;;;;;;6215764;23;20275;-77
2021/04/15 22:38:52;;;;;;;4.82;3.85;;;3.70;99.90;;;;;;6215973;23;20220;-77
2021/04/15 22:41:18;;;;;;;8.13;4.40;;;3.70;99.90;;;;;;6189689;23;20146;-77
2021/04/15 22:43:44;;;;;;;6.60;3.57;;;3.70;99.90;;;;;;6215956;23;20156;-78
2021/04/15 22:46:09;;;;;;;4.73;3.87;;;3.60;99.90;;;;;;6215645;23;20248;-77
2021/04/15 22:48:36;;;;;;;4.80;3.80;;;3.60;99.90;;;;;;6214799;23;20160;-77
2021/04/15 22:51:02;;;;;;;5.50;3.55;;;3.60;99.90;;;;;;6189786;23;20154;-78
2021/04/15 22:53:33;;;;;;;4.90;3.90;;;3.50;99.90;;;;;;6215986;23;20154;-77
2021/04/15 22:55:59;;;;;;;6.82;3.92;;;3.50;99.90;;;;;;6215460;23;20562;-77
2021/04/15 22:58:30;;;;;;;6.15;4.18;;;3.50;99.90;;;;;;6215876;23;20200;-77
2021/04/15 23:00:59;;;;;;;6.43;4.10;;;3.40;99.90;;;;;;6216093;23;20136;-77
2021/04/15 23:03:24;;;;;;;5.72;3.80;;;3.40;99.90;;;;;;6216065;23;20149;-76
2021/04/15 23:05:50;;;;;;;4.77;4.00;;;3.50;99.90;;;;;;6215336;23;20195;-76
2021/04/15 23:08:17;;;;;;;5.50;3.73;;;3.50;99.90;;;;;;6215842;23;20601;-78
2021/04/15 23:10:45;;;;;;;4.30;3.10;;;3.60;99.90;;;;;;6215809;23;20844;-77
2021/04/15 23:13:12;;;;;;;6.95;3.45;;;3.60;99.90;;;;;;6216010;23;20507;-78
2021/04/15 23:15:38;;;;;;;6.45;3.88;;;3.60;99.90;;;;;;6215884;23;20180;-78
2021/04/15 23:18:05;;;;;;;9.57;4.47;;;3.50;99.90;;;;;;6215734;23;20591;-77
2021/04/15 23:20:34;;;;;;;6.05;4.40;;;3.50;99.90;;;;;;6189582;23;20154;-76
2021/04/15 23:23:00;;;;;;;6.32;4.43;;;3.50;99.90;;;;;;6215895;23;20143;-78
2021/04/15 23:25:26;;;;;;;6.93;3.80;;;3.50;99.90;;;;;;6215319;23;21621;-77